Time;durP1;ratioP1;P1;durP2;ratioP2;P2;SDS_P1;SDS_P2;PMS_P1;PMS_P2;Temp;Humidity;BMP_temperature;BMP_pressure;BME280_temperature;BME280_humidity;BME280_pressure;Samples;Min_cycle;Max_cycle;Signal;HPM_P1;HPM_P2
2022/08/14 00:01:10;;;;;;;10.55;6.35;;;;;;;;;;4851194;29;20049;-72
2022/08/14 00:03:41;;;;;;;10.85;5.18;;;;;;;;;;4851624;29;20506;-72
2022/08/14 00:06:10;;;;;;;9.88;4.38;;;;;;;;;;4851235;29;20140;-72
2022/08/14 00:08:56;;;;;;;12.85;4.85;;;;;;;;;;4851546;29;20049;-72
2022/08/14 00:11:27;;;;;;;8.63;4.13;;;;;;;;;;4851750;29;20049;-74
2022/08/14 00:14:02;;;;;;;10.13;4.25;;;;;;;;;;4850772;29;20104;-73
2022/08/14 00:16:32;;;;;;;7.20;4.63;;;;;;;;;;4850938;29;20475;-72
2022/08/14 00:19:13;;;;;;;7.72;4.45;;;;;;;;;;4851166;29;20053;-71
2022/08/14 00:21:50;;;;;;;11.07;4.25;;;;;;;;;;4850612;29;20071;-71
2022/08/14 00:24:22;;;;;;;6.75;3.97;;;;;;;;;;4850784;29;20054;-71
2022/08/14 00:26:58;;;;;;;11.40;4.22;;;;;;;;;;4835487;29;20058;-71
2022/08/14 00:29:31;;;;;;;10.60;4.70;;;;;;;;;;4847885;29;20536;-73
2022/08/14 00:32:08;;;;;;;9.13;4.50;;;;;;;;;;4863685;29;20060;-72
2022/08/14 00:35:00;;;;;;;9.68;4.70;;;;;;;;;;4867103;29;20512;-72
2022/08/14 00:37:30;;;;;;;11.50;4.97;;;;;;;;;;4865958;29;20061;-72
2022/08/14 00:40:01;;;;;;;8.43;3.88;;;;;;;;;;4864923;29;20052;-72
2022/08/14 00:42:51;;;;;;;16.40;4.68;;;;;;;;;;4864646;29;20052;-72
2022/08/14 00:45:24;;;;;;;8.23;4.30;;;;;;;;;;4862768;29;20049;-73
2022/08/14 00:47:58;;;;;;;8.20;4.70;;;;;;;;;;4864370;29;20061;-71
2022/08/14 00:50:29;;;;;;;7.53;4.47;;;;;;;;;;4856966;29;20053;-72
2022/08/14 00:53:00;;;;;;;6.75;4.68;;;;;;;;;;4857265;29;20061;-72
2022/08/14 00:55:30;;;;;;;9.30;4.82;;;;;;;;;;4857362;29;20080;-71
2022/08/14 01:01:06;;;;;;;11.27;4.82;;;;;;;;;;4857371;29;20500;-72
2022/08/14 01:03:39;;;;;;;10.13;4.35;;;;;;;;;;4856902;29;20049;-72
2022/08/14 01:06:16;;;;;;;8.88;4.10;;;;;;;;;;4855162;29;20056;-72
2022/08/14 01:08:49;;;;;;;7.22;3.60;;;;;;;;;;4856661;29;20049;-72
2022/08/14 01:11:28;;;;;;;11.13;3.88;;;;;;;;;;4856763;29;20064;-71
2022/08/14 01:14:04;;;;;;;6.75;3.17;;;;;;;;;;4856365;29;20052;-71
2022/08/14 01:16:54;;;;;;;4.70;2.83;;;;;;;;;;4857103;29;20061;-70
2022/08/14 01:22:17;;;;;;;11.75;3.20;;;;;;;;;;4856819;29;20060;-71
2022/08/14 01:24:47;;;;;;;9.23;2.80;;;;;;;;;;4856459;29;20057;-71
2022/08/14 01:27:21;;;;;;;4.82;2.67;;;;;;;;;;4855774;29;20061;-72
2022/08/14 01:29:54;;;;;;;8.68;2.65;;;;;;;;;;4856598;29;20073;-70
2022/08/14 01:32:32;;;;;;;3.40;2.22;;;;;;;;;;4856939;29;20064;-71
2022/08/14 01:35:10;;;;;;;6.50;2.95;;;;;;;;;;4856764;29;20053;-72
2022/08/14 01:38:01;;;;;;;6.60;2.65;;;;;;;;;;4856629;29;20046;-72
2022/08/14 01:40:33;;;;;;;5.18;2.40;;;;;;;;;;4855668;29;20049;-71
2022/08/14 01:43:17;;;;;;;4.78;2.45;;;;;;;;;;4856137;29;20124;-72
2022/08/14 01:45:54;;;;;;;8.93;2.10;;;;;;;;;;4855985;29;20057;-72
2022/08/14 01:48:34;;;;;;;4.60;2.40;;;;;;;;;;4856004;29;20057;-72
2022/08/14 01:51:08;;;;;;;5.78;2.13;;;;;;;;;;4856317;29;20049;-72
2022/08/14 01:53:53;;;;;;;4.93;2.38;;;;;;;;;;4856066;29;20402;-71
2022/08/14 01:56:34;;;;;;;;;;;;;;;;;;4855701;29;20053;-71
2022/08/14 01:59:31;;;;;;;5.68;2.28;;;;;;;;;;4856372;29;19924;-71
2022/08/14 02:02:13;;;;;;;4.53;2.72;;;;;;;;;;4855894;29;20053;-71
2022/08/14 02:04:49;;;;;;;7.30;2.72;;;;;;;;;;4855975;29;20510;-71
2022/08/14 02:07:25;;;;;;;6.95;2.85;;;;;;;;;;4855964;29;20048;-71
2022/08/14 02:10:16;;;;;;;5.90;3.03;;;;;;;;;;4854867;29;20490;-71
2022/08/14 02:12:56;;;;;;;5.57;2.88;;;;;;;;;;4855390;29;20054;-70
2022/08/14 02:15:27;;;;;;;6.63;3.13;;;;;;;;;;4855417;29;20049;-70
2022/08/14 02:18:00;;;;;;;8.45;3.17;;;;;;;;;;4855010;29;20411;-72
2022/08/14 02:20:32;;;;;;;9.05;3.40;;;;;;;;;;4855698;29;20520;-67
2022/08/14 02:23:04;;;;;;;6.50;3.40;;;;;;;;;;4866493;29;20060;-70
2022/08/14 02:25:37;;;;;;;6.65;3.40;;;;;;;;;;4870931;29;20057;-70
2022/08/14 02:28:07;;;;;;;8.90;3.38;;;;;;;;;;4871385;29;20112;-70
2022/08/14 02:31:01;;;;;;;5.93;3.42;;;;;;;;;;4870659;29;20671;-70
2022/08/14 02:33:36;;;;;;;8.57;3.35;;;;;;;;;;4869440;29;20049;-70
2022/08/14 02:36:09;;;;;;;5.95;3.30;;;;;;;;;;4868639;29;20056;-71
2022/08/14 02:38:59;;;;;;;6.57;3.70;;;;;;;;;;4858829;29;20053;-71
2022/08/14 02:41:31;;;;;;;9.43;3.70;;;;;;;;;;4855666;29;20057;-71
2022/08/14 02:44:09;;;;;;;8.05;3.80;;;;;;;;;;4854563;29;20053;-71
2022/08/14 02:46:43;;;;;;;8.32;3.60;;;;;;;;;;4854979;29;20057;-79
2022/08/14 02:49:25;;;;;;;6.22;3.60;;;;;;;;;;4855096;29;20420;-71
2022/08/14 02:52:05;;;;;;;7.95;3.63;;;;;;;;;;4854218;29;20061;-71
2022/08/14 02:54:56;;;;;;;5.50;3.33;;;;;;;;;;4854915;29;20054;-70
2022/08/14 02:57:27;;;;;;;11.13;3.85;;;;;;;;;;4855299;29;20049;-71
2022/08/14 03:00:11;;;;;;;7.97;3.50;;;;;;;;;;4854713;29;20049;-71
2022/08/14 03:02:49;;;;;;;6.80;3.50;;;;;;;;;;4855457;29;20057;-72
2022/08/14 03:05:30;;;;;;;7.13;3.22;;;;;;;;;;4854461;29;20057;-71
2022/08/14 03:08:11;;;;;;;8.68;3.83;;;;;;;;;;4854537;29;20062;-71
2022/08/14 03:10:44;;;;;;;11.55;3.78;;;;;;;;;;4855047;29;20533;-71
2022/08/14 03:13:20;;;;;;;9.30;3.47;;;;;;;;;;4854379;29;20050;-71
2022/08/14 03:15:52;;;;;;;8.68;4.03;;;;;;;;;;4854890;29;20053;-71
2022/08/14 03:18:27;;;;;;;5.90;3.33;;;;;;;;;;4855044;29;20053;-71
2022/08/14 03:21:01;;;;;;;9.48;3.58;;;;;;;;;;4853374;29;20521;-71
2022/08/14 03:23:35;;;;;;;8.05;3.90;;;;;;;;;;4852434;29;20060;-71
2022/08/14 03:26:12;;;;;;;7.13;3.47;;;;;;;;;;4852555;29;20571;-70
2022/08/14 03:28:49;;;;;;;12.38;3.47;;;;;;;;;;4852728;29;20057;-71
2022/08/14 03:31:22;;;;;;;5.28;3.25;;;;;;;;;;4853168;29;20075;-71
2022/08/14 03:33:57;;;;;;;7.07;3.35;;;;;;;;;;4853168;29;20072;-71
2022/08/14 03:36:32;;;;;;;11.50;3.72;;;;;;;;;;4853683;29;20062;-71
2022/08/14 03:39:23;;;;;;;6.53;3.53;;;;;;;;;;4853396;29;20053;-71
2022/08/14 03:41:56;;;;;;;5.53;3.47;;;;;;;;;;4853709;29;20046;-70
2022/08/14 03:44:31;;;;;;;7.07;3.83;;;;;;;;;;4854440;29;20066;-71
2022/08/14 03:47:21;;;;;;;7.70;3.72;;;;;;;;;;4854237;29;20409;-70
2022/08/14 03:50:12;;;;;;;9.95;3.60;;;;;;;;;;4854449;29;20401;-71
2022/08/14 03:52:55;;;;;;;7.13;3.60;;;;;;;;;;4854610;29;20061;-71
2022/08/14 03:55:28;;;;;;;6.70;3.55;;;;;;;;;;4854477;29;20520;-71
2022/08/14 03:57:58;;;;;;;8.15;3.63;;;;;;;;;;4855023;29;20057;-71
2022/08/14 04:00:29;;;;;;;8.35;3.88;;;;;;;;;;4854572;29;20049;-71
2022/08/14 04:03:13;;;;;;;7.32;4.10;;;;;;;;;;4854972;29;20428;-71
2022/08/14 04:05:53;;;;;;;6.72;4.03;;;;;;;;;;4858002;29;20060;-71
2022/08/14 04:08:23;;;;;;;6.63;3.47;;;;;;;;;;4857701;29;20080;-71
2022/08/14 04:10:59;;;;;;;;;;;;;;;;;;4858379;29;20112;-71
2022/08/14 04:13:40;;;;;;;8.57;3.58;;;;;;;;;;4858249;29;19935;-71
2022/08/14 04:16:21;;;;;;;11.88;4.03;;;;;;;;;;4858221;29;20065;-71
2022/08/14 04:18:56;;;;;;;8.73;3.83;;;;;;;;;;4857939;29;20049;-71
2022/08/14 04:21:28;;;;;;;8.48;3.70;;;;;;;;;;4857824;29;20510;-71
2022/08/14 04:24:18;;;;;;;6.20;3.55;;;;;;;;;;4857239;29;20049;-71
2022/08/14 04:26:53;;;;;;;7.43;4.15;;;;;;;;;;4857564;29;20406;-71
2022/08/14 04:29:22;;;;;;;;;;;;;;;;;;4858368;29;20414;-71
2022/08/14 04:31:53;;;;;;;10.68;4.30;;;;;;;;;;4857733;29;19935;-71
2022/08/14 04:34:43;;;;;;;8.55;4.43;;;;;;;;;;4857360;29;20053;-71
2022/08/14 04:46:15;;;;;;;12.27;4.43;;;;;;;;;;4857249;29;20054;-71
2022/08/14 04:49:05;;;;;;;7.35;3.97;;;;;;;;;;4857158;29;20053;-70
2022/08/14 04:51:36;;;;;;;5.68;3.83;;;;;;;;;;4857220;29;20049;-71
2022/08/14 04:54:27;;;;;;;5.65;3.97;;;;;;;;;;4857261;29;20042;-71
2022/08/14 04:56:57;;;;;;;7.07;4.13;;;;;;;;;;4857137;29;20052;-71
2022/08/14 04:59:27;;;;;;;10.07;4.32;;;;;;;;;;4857510;29;20497;-71
2022/08/14 05:01:57;;;;;;;10.73;4.38;;;;;;;;;;4856718;29;20050;-71
2022/08/14 05:04:27;;;;;;;7.53;4.32;;;;;;;;;;4857203;29;20065;-71
2022/08/14 05:06:56;;;;;;;;;;;;;;;;;;4857293;29;20060;-71
2022/08/14 05:09:26;;;;;;;8.98;3.85;;;;;;;;;;4871363;29;19924;-71
2022/08/14 05:11:58;;;;;;;11.15;4.60;;;;;;;;;;4857225;29;20049;-71
2022/08/14 05:14:49;;;;;;;11.07;4.78;;;;;;;;;;4855739;29;20053;-71
2022/08/14 05:17:27;;;;;;;9.07;4.30;;;;;;;;;;4856741;29;20386;-71
2022/08/14 05:20:12;;;;;;;5.60;3.60;;;;;;;;;;4857062;29;20054;-71
2022/08/14 05:23:02;;;;;;;4.93;3.53;;;;;;;;;;4856907;29;20058;-71
2022/08/14 05:25:33;;;;;;;6.63;3.70;;;;;;;;;;4856727;29;20050;-71
2022/08/14 05:28:17;;;;;;;6.55;3.97;;;;;;;;;;4856351;29;20080;-71
2022/08/14 05:31:08;;;;;;;7.38;3.83;;;;;;;;;;4855992;29;20498;-71
2022/08/14 05:33:38;;;;;;;8.57;4.18;;;;;;;;;;4856206;29;20499;-71
2022/08/14 05:36:11;;;;;;;10.63;4.05;;;;;;;;;;4871146;29;20060;-71
2022/08/14 05:38:47;;;;;;;6.10;4.10;;;;;;;;;;4855398;29;20405;-71
2022/08/14 05:41:21;;;;;;;8.75;4.00;;;;;;;;;;4855956;29;20061;-71
2022/08/14 05:44:04;;;;;;;8.07;3.95;;;;;;;;;;4855620;29;20057;-71
2022/08/14 05:46:34;;;;;;;6.72;4.00;;;;;;;;;;4856323;29;20410;-71
2022/08/14 05:49:05;;;;;;;11.95;4.53;;;;;;;;;;4855716;29;20089;-70
2022/08/14 05:51:37;;;;;;;7.55;4.68;;;;;;;;;;4856368;29;20500;-71
2022/08/14 05:54:08;;;;;;;5.88;4.03;;;;;;;;;;4856076;29;20053;-70
2022/08/14 05:56:54;;;;;;;8.35;4.45;;;;;;;;;;4855947;29;20041;-70
2022/08/14 05:59:23;;;;;;;;;;;;;;;;;;4855930;29;20429;-70
2022/08/14 06:02:08;;;;;;;5.20;3.28;;;;;;;;;;4854442;29;19924;-71
2022/08/14 06:04:40;;;;;;;5.13;3.22;;;;;;;;;;4856391;29;20053;-71
2022/08/14 06:07:11;;;;;;;6.10;4.20;;;;;;;;;;4856194;29;20057;-71
2022/08/14 06:09:43;;;;;;;6.05;3.65;;;;;;;;;;4856302;29;20524;-71
2022/08/14 06:12:20;;;;;;;8.77;3.83;;;;;;;;;;4855815;29;20509;-71
2022/08/14 06:15:11;;;;;;;6.78;3.78;;;;;;;;;;4855417;29;20049;-72
2022/08/14 06:17:46;;;;;;;7.60;3.92;;;;;;;;;;4855910;29;20057;-69
2022/08/14 06:20:28;;;;;;;6.57;4.40;;;;;;;;;;4856352;29;20053;-70
2022/08/14 06:22:58;;;;;;;5.55;3.38;;;;;;;;;;4855603;29;20060;-71
2022/08/14 06:25:30;;;;;;;10.20;3.50;;;;;;;;;;4855793;29;20052;-72
2022/08/14 06:28:01;;;;;;;5.18;3.50;;;;;;;;;;4855815;29;20536;-71
2022/08/14 06:30:33;;;;;;;6.35;4.30;;;;;;;;;;4855371;29;20057;-71
2022/08/14 06:33:15;;;;;;;7.82;3.97;;;;;;;;;;4855504;29;20056;-72
2022/08/14 06:35:48;;;;;;;7.03;4.13;;;;;;;;;;4855475;29;20052;-71
2022/08/14 06:38:21;;;;;;;7.40;4.28;;;;;;;;;;4855738;29;20056;-71
2022/08/14 06:40:51;;;;;;;5.32;3.60;;;;;;;;;;4855227;29;20497;-71
2022/08/14 06:43:22;;;;;;;8.23;4.38;;;;;;;;;;4855096;29;20042;-71
2022/08/14 06:45:59;;;;;;;10.25;4.20;;;;;;;;;;4855137;29;20046;-71
2022/08/14 06:48:31;;;;;;;7.70;4.90;;;;;;;;;;4855139;29;20058;-72
2022/08/14 06:51:03;;;;;;;9.52;3.90;;;;;;;;;;4854464;29;20049;-71
2022/08/14 06:53:33;;;;;;;9.43;4.30;;;;;;;;;;4853684;29;20061;-72
2022/08/14 06:56:03;;;;;;;13.25;4.13;;;;;;;;;;4855233;29;20053;-69
2022/08/14 06:58:33;;;;;;;7.82;4.68;;;;;;;;;;4854631;29;20413;-72
2022/08/14 07:06:53;;;;;;;9.10;4.72;;;;;;;;;;4855002;29;20056;-69
2022/08/14 07:09:27;;;;;;;11.02;4.88;;;;;;;;;;4855084;29;20057;-71
2022/08/14 07:12:17;;;;;;;9.13;4.07;;;;;;;;;;4854995;29;20037;-71
2022/08/14 07:15:08;;;;;;;7.50;4.25;;;;;;;;;;4854641;29;20042;-71
2022/08/14 07:17:50;;;;;;;8.75;4.43;;;;;;;;;;4855311;29;20053;-71
2022/08/14 07:20:21;;;;;;;;;;;;;;;;;;4854687;29;20065;-71
2022/08/14 07:23:01;;;;;;;7.53;4.30;;;;;;;;;;4854203;29;20305;-71
2022/08/14 07:25:39;;;;;;;6.40;4.55;;;;;;;;;;4854073;29;20607;-71
2022/08/14 07:28:17;;;;;;;10.18;4.60;;;;;;;;;;4854171;29;20057;-71
2022/08/14 07:30:50;;;;;;;8.48;4.53;;;;;;;;;;4853422;29;20059;-71
2022/08/14 07:33:20;;;;;;;6.55;4.20;;;;;;;;;;4854593;29;20553;-71
2022/08/14 07:36:00;;;;;;;9.65;5.22;;;;;;;;;;4854417;29;20120;-72
2022/08/14 07:38:31;;;;;;;9.40;5.47;;;;;;;;;;4856006;29;20429;-72
2022/08/14 07:41:06;;;;;;;9.15;4.55;;;;;;;;;;4858441;29;20056;-71
2022/08/14 07:43:44;;;;;;;13.35;5.32;;;;;;;;;;4858212;29;20107;-71
2022/08/14 07:46:25;;;;;;;11.63;5.68;;;;;;;;;;4857663;29;20426;-71
2022/08/14 07:49:02;;;;;;;8.57;5.20;;;;;;;;;;4858398;29;20067;-71
2022/08/14 07:51:33;;;;;;;12.75;5.65;;;;;;;;;;4857635;29;20050;-71
2022/08/14 07:54:06;;;;;;;8.93;5.28;;;;;;;;;;4871747;29;20049;-71
2022/08/14 07:56:41;;;;;;;5.72;3.55;;;;;;;;;;4858121;29;20525;-71
2022/08/14 07:59:20;;;;;;;6.18;3.85;;;;;;;;;;4858414;29;20509;-71
2022/08/14 08:02:14;;;;;;;8.65;4.63;;;;;;;;;;4858098;29;20518;-71
2022/08/14 08:04:54;;;;;;;10.20;4.68;;;;;;;;;;4857286;29;20049;-71
2022/08/14 08:07:30;;;;;;;7.95;4.40;;;;;;;;;;4870437;29;20052;-71
2022/08/14 08:13:23;;;;;;;8.30;3.78;;;;;;;;;;4874008;29;20056;-71
2022/08/14 08:15:57;;;;;;;10.30;5.10;;;;;;;;;;4875256;29;20053;-71
2022/08/14 08:18:28;;;;;;;8.57;4.40;;;;;;;;;;4874276;29;20052;-71
2022/08/14 08:20:58;;;;;;;8.13;5.18;;;;;;;;;;4857995;29;20509;-71
2022/08/14 08:23:32;;;;;;;8.00;4.88;;;;;;;;;;4858216;29;20053;-71
2022/08/14 08:26:19;;;;;;;8.57;4.80;;;;;;;;;;4857908;29;20053;-71
2022/08/14 08:28:59;;;;;;;7.68;5.07;;;;;;;;;;4858078;29;20565;-71
2022/08/14 08:31:30;;;;;;;7.85;4.40;;;;;;;;;;4856125;29;20061;-71
2022/08/14 08:34:05;;;;;;;10.25;5.10;;;;;;;;;;4857554;29;20711;-70
2022/08/14 08:36:46;;;;;;;;;;;;;;;;;;4858233;29;20058;-71
2022/08/14 08:39:16;;;;;;;8.65;4.63;;;;;;;;;;4856829;29;19927;-70
2022/08/14 08:41:50;;;;;;;9.23;4.03;;;;;;;;;;4856531;29;20049;-70
2022/08/14 08:44:31;;;;;;;8.13;4.47;;;;;;;;;;4857521;29;20070;-70
2022/08/14 08:47:06;;;;;;;10.63;5.07;;;;;;;;;;4857360;29;20064;-70
2022/08/14 08:49:41;;;;;;;12.40;4.85;;;;;;;;;;4857018;29;20061;-71
2022/08/14 08:52:28;;;;;;;12.68;5.53;;;;;;;;;;4857369;29;20065;-70
2022/08/14 08:54:59;;;;;;;13.38;4.85;;;;;;;;;;4857015;29;20060;-71
2022/08/14 08:57:36;;;;;;;5.57;3.90;;;;;;;;;;4856923;29;20064;-70
2022/08/14 09:00:17;;;;;;;6.60;4.32;;;;;;;;;;4857577;29;20390;-70
2022/08/14 09:02:58;;;;;;;9.75;4.78;;;;;;;;;;4856291;29;20069;-71
2022/08/14 09:05:31;;;;;;;11.20;4.88;;;;;;;;;;4841638;29;20068;-70
2022/08/14 09:08:17;;;;;;;6.97;4.60;;;;;;;;;;4857577;29;20054;-71
2022/08/14 09:11:10;;;;;;;6.95;4.55;;;;;;;;;;4857050;29;20680;-72
2022/08/14 09:13:52;;;;;;;6.93;4.97;;;;;;;;;;4856800;29;20059;-71
2022/08/14 09:16:24;;;;;;;7.60;4.93;;;;;;;;;;4857124;29;20038;-71
2022/08/14 09:18:54;;;;;;;8.32;5.82;;;;;;;;;;4857039;29;20053;-70
2022/08/14 09:21:25;;;;;;;12.85;5.43;;;;;;;;;;4856899;29;20128;-70
2022/08/14 09:24:00;;;;;;;10.10;4.63;;;;;;;;;;4856770;29;20057;-70
2022/08/14 09:26:51;;;;;;;9.10;4.88;;;;;;;;;;4856878;29;20045;-70
2022/08/14 09:29:21;;;;;;;12.45;5.53;;;;;;;;;;4856823;29;20120;-71
2022/08/14 09:31:59;;;;;;;8.57;5.25;;;;;;;;;;4856249;29;20429;-70
2022/08/14 09:35:09;;;;;;;9.02;5.15;;;;;;;;;;4856860;29;20057;-70
2022/08/14 09:38:05;;;;;;;10.55;4.95;;;;;;;;;;4856824;29;20532;-70
2022/08/14 09:41:18;;;;;;;12.82;5.45;;;;;;;;;;4856951;29;20049;-71
2022/08/14 09:44:01;;;;;;;9.88;5.13;;;;;;;;;;4856386;29;20057;-72
2022/08/14 09:46:35;;;;;;;11.65;6.55;;;;;;;;;;4856534;29;20541;-71
2022/08/14 09:49:07;;;;;;;11.38;5.97;;;;;;;;;;4854929;29;20425;-71
2022/08/14 09:51:47;;;;;;;8.75;5.43;;;;;;;;;;4856283;29;20433;-71
2022/08/14 09:54:37;;;;;;;12.48;6.72;;;;;;;;;;4856285;29;20073;-71
2022/08/14 09:57:09;;;;;;;13.05;6.00;;;;;;;;;;4856196;29;20053;-71
2022/08/14 09:59:45;;;;;;;9.38;5.85;;;;;;;;;;4856055;29;20053;-71
2022/08/14 10:02:22;;;;;;;16.02;6.63;;;;;;;;;;4855463;29;20054;-70
2022/08/14 10:05:06;;;;;;;13.48;6.88;;;;;;;;;;4856640;29;20045;-71
2022/08/14 10:07:49;;;;;;;11.13;6.55;;;;;;;;;;4855527;29;20058;-71
2022/08/14 10:10:37;;;;;;;9.55;5.82;;;;;;;;;;4855680;29;20041;-71
2022/08/14 10:13:23;;;;;;;12.45;5.95;;;;;;;;;;4856275;29;20077;-71
2022/08/14 10:15:59;;;;;;;11.05;6.07;;;;;;;;;;4856105;29;20053;-71
2022/08/14 10:18:32;;;;;;;10.15;6.30;;;;;;;;;;4854293;29;20057;-71
2022/08/14 10:21:04;;;;;;;12.23;6.00;;;;;;;;;;4856199;29;20413;-71
2022/08/14 10:23:44;;;;;;;7.88;4.95;;;;;;;;;;4854512;29;20052;-71
2022/08/14 10:26:16;;;;;;;11.48;5.68;;;;;;;;;;4856123;29;20416;-71
2022/08/14 10:29:05;;;;;;;7.63;5.22;;;;;;;;;;4855913;29;20050;-71
2022/08/14 10:32:00;;;;;;;11.93;5.55;;;;;;;;;;4855825;29;20082;-71
2022/08/14 10:34:46;;;;;;;9.18;5.20;;;;;;;;;;4855231;29;20060;-71
2022/08/14 10:37:20;;;;;;;13.43;6.10;;;;;;;;;;4855273;29;20045;-70
2022/08/14 10:40:02;;;;;;;10.15;5.82;;;;;;;;;;4855714;29;20045;-71
2022/08/14 10:42:52;;;;;;;11.45;6.13;;;;;;;;;;4854048;29;20061;-71
2022/08/14 10:45:25;;;;;;;11.60;6.13;;;;;;;;;;4854233;29;20069;-71
2022/08/14 10:47:56;;;;;;;11.00;6.38;;;;;;;;;;4855378;29;20060;-71
2022/08/14 10:50:49;;;;;;;11.93;6.70;;;;;;;;;;4855469;29;20045;-71
2022/08/14 10:53:31;;;;;;;9.57;6.47;;;;;;;;;;4855039;29;20049;-72
2022/08/14 10:56:07;;;;;;;9.95;6.03;;;;;;;;;;4855171;29;20050;-72
2022/08/14 10:59:05;;;;;;;11.95;6.47;;;;;;;;;;4855920;29;20053;-72
2022/08/14 11:01:38;;;;;;;10.43;6.15;;;;;;;;;;4855105;29;20053;-72
2022/08/14 11:04:24;;;;;;;14.55;5.47;;;;;;;;;;4855288;29;20065;-71
2022/08/14 11:06:55;;;;;;;11.32;5.22;;;;;;;;;;4854861;29;20041;-71
2022/08/14 11:09:25;;;;;;;10.48;5.72;;;;;;;;;;4855268;29;20057;-71
2022/08/14 11:12:02;;;;;;;8.90;5.40;;;;;;;;;;4855016;29;20049;-71
2022/08/14 11:14:58;;;;;;;7.80;4.90;;;;;;;;;;4853471;29;20062;-70
2022/08/14 11:17:31;;;;;;;16.52;6.07;;;;;;;;;;4855058;29;20057;-71
2022/08/14 11:20:05;;;;;;;10.88;6.25;;;;;;;;;;4855316;29;20080;-70
2022/08/14 11:22:45;;;;;;;8.07;5.78;;;;;;;;;;4855189;29;20064;-71
2022/08/14 11:25:30;;;;;;;10.88;5.00;;;;;;;;;;4854795;29;20055;-71
2022/08/14 11:28:16;;;;;;;11.80;5.43;;;;;;;;;;4855129;29;20398;-71
2022/08/14 11:30:49;;;;;;;9.07;5.07;;;;;;;;;;4854661;29;20052;-71
2022/08/14 11:33:24;;;;;;;8.45;6.10;;;;;;;;;;4855685;29;20050;-77
2022/08/14 11:36:00;;;;;;;11.80;4.72;;;;;;;;;;4853641;29;20052;-71
2022/08/14 11:38:46;;;;;;;7.53;4.82;;;;;;;;;;4854875;29;20050;-71
2022/08/14 11:41:16;;;;;;;7.85;4.70;;;;;;;;;;4854741;29;20057;-71
2022/08/14 11:43:48;;;;;;;7.32;4.95;;;;;;;;;;4855109;29;20053;-71
2022/08/14 11:46:27;;;;;;;11.75;5.07;;;;;;;;;;4854326;29;20590;-74
2022/08/14 11:49:06;;;;;;;8.07;4.72;;;;;;;;;;4854576;29;20054;-72
2022/08/14 11:51:39;;;;;;;8.80;5.65;;;;;;;;;;4854633;29;20042;-71
2022/08/14 11:54:22;;;;;;;7.32;4.85;;;;;;;;;;4854262;29;20044;-71
2022/08/14 11:57:04;;;;;;;5.53;4.32;;;;;;;;;;4854164;29;20053;-72
2022/08/14 11:59:34;;;;;;;10.38;4.70;;;;;;;;;;4855067;29;20050;-72
2022/08/14 12:02:16;;;;;;;7.53;4.45;;;;;;;;;;4853812;29;20054;-72
2022/08/14 12:05:07;;;;;;;8.38;5.07;;;;;;;;;;4854384;29;20041;-72
2022/08/14 12:07:48;;;;;;;6.93;4.80;;;;;;;;;;4854878;29;20055;-72
2022/08/14 12:10:21;;;;;;;10.68;4.45;;;;;;;;;;4854694;29;20505;-71
2022/08/14 12:12:56;;;;;;;9.57;4.65;;;;;;;;;;4854510;29;20053;-72
2022/08/14 12:15:37;;;;;;;8.20;4.20;;;;;;;;;;4854335;29;20052;-72
2022/08/14 12:18:13;;;;;;;13.57;4.50;;;;;;;;;;4854225;29;20050;-74
2022/08/14 12:20:47;;;;;;;6.35;4.18;;;;;;;;;;4854644;29;20450;-74
2022/08/14 12:23:25;;;;;;;7.82;3.90;;;;;;;;;;4854082;29;20053;-73
2022/08/14 12:26:06;;;;;;;6.70;4.07;;;;;;;;;;4857818;29;20053;-71
2022/08/14 12:29:14;;;;;;;5.53;3.72;;;;;;;;;;4858174;29;20056;-72
2022/08/14 12:31:45;;;;;;;8.55;3.85;;;;;;;;;;4857624;29;20049;-71
2022/08/14 12:34:19;;;;;;;5.50;3.38;;;;;;;;;;4858301;29;20049;-72
2022/08/14 12:37:07;;;;;;;5.90;3.92;;;;;;;;;;4858022;29;20069;-72
2022/08/14 12:39:39;;;;;;;10.85;4.22;;;;;;;;;;4858042;29;20056;-71
2022/08/14 12:42:09;;;;;;;7.90;3.88;;;;;;;;;;4857136;29;20058;-71
2022/08/14 12:45:00;;;;;;;12.90;4.00;;;;;;;;;;4857226;29;20068;-72
2022/08/14 12:47:33;;;;;;;9.60;3.97;;;;;;;;;;4857673;29;20524;-73
2022/08/14 12:50:10;;;;;;;6.80;3.92;;;;;;;;;;4857522;29;20057;-71
2022/08/14 12:52:44;;;;;;;9.05;3.83;;;;;;;;;;4856840;29;20056;-72
2022/08/14 12:55:37;;;;;;;8.77;4.50;;;;;;;;;;4857483;29;20505;-72
2022/08/14 12:58:30;;;;;;;7.88;3.70;;;;;;;;;;4857547;29;20057;-73
2022/08/14 13:01:26;;;;;;;6.28;3.35;;;;;;;;;;4857431;29;20073;-71
2022/08/14 13:04:11;;;;;;;7.68;3.50;;;;;;;;;;4857429;29;20050;-76
2022/08/14 13:06:44;;;;;;;10.10;3.53;;;;;;;;;;4879733;29;20053;-72
2022/08/14 13:09:20;;;;;;;13.95;3.42;;;;;;;;;;4879607;29;20057;-72
2022/08/14 13:11:53;;;;;;;6.05;3.20;;;;;;;;;;4878718;29;20047;-72
2022/08/14 13:14:29;;;;;;;13.30;3.40;;;;;;;;;;4878981;29;20049;-72
2022/08/14 13:17:01;;;;;;;4.60;3.25;;;;;;;;;;4879776;29;20048;-75
2022/08/14 13:19:32;;;;;;;5.00;3.05;;;;;;;;;;4872067;29;20431;-74
2022/08/14 13:22:03;;;;;;;6.95;3.35;;;;;;;;;;4857265;29;20403;-73
2022/08/14 13:24:38;;;;;;;9.43;3.38;;;;;;;;;;4857627;29;20065;-71
2022/08/14 13:27:11;;;;;;;9.32;3.88;;;;;;;;;;4856782;29;20061;-72
2022/08/14 13:29:43;;;;;;;8.20;4.13;;;;;;;;;;4856877;29;20053;-74
2022/08/14 13:32:15;;;;;;;8.55;3.40;;;;;;;;;;4856388;29;20517;-74
2022/08/14 13:34:47;;;;;;;9.60;3.60;;;;;;;;;;4856521;29;20058;-73
2022/08/14 13:37:21;;;;;;;8.65;4.15;;;;;;;;;;4855689;29;20064;-73
2022/08/14 13:39:52;;;;;;;11.27;4.15;;;;;;;;;;4856496;29;20053;-75
2022/08/14 13:42:27;;;;;;;6.60;3.40;;;;;;;;;;4856396;29;20054;-73
2022/08/14 13:45:05;;;;;;;10.13;3.28;;;;;;;;;;4855261;29;20072;-74
2022/08/14 13:47:35;;;;;;;7.45;3.55;;;;;;;;;;4856140;29;20052;-72
2022/08/14 13:50:12;;;;;;;13.10;3.40;;;;;;;;;;4855275;29;20046;-74
2022/08/14 13:52:52;;;;;;;14.73;4.13;;;;;;;;;;4852939;29;20083;-73
2022/08/14 13:55:28;;;;;;;8.43;3.22;;;;;;;;;;4854283;29;20666;-74
2022/08/14 13:58:02;;;;;;;12.23;4.30;;;;;;;;;;4855410;29;20401;-79
2022/08/14 14:00:35;;;;;;;8.35;3.72;;;;;;;;;;4853783;29;20551;-75
2022/08/14 14:03:25;;;;;;;8.15;3.03;;;;;;;;;;4856023;29;20053;-74
2022/08/14 14:06:01;;;;;;;7.30;2.92;;;;;;;;;;4854937;29;20046;-74
2022/08/14 14:08:38;;;;;;;6.40;3.47;;;;;;;;;;4855126;29;20061;-74
2022/08/14 14:11:23;;;;;;;6.00;2.67;;;;;;;;;;4855899;29;20060;-74
2022/08/14 14:14:02;;;;;;;4.90;2.78;;;;;;;;;;4855659;29;20049;-73
2022/08/14 14:16:32;;;;;;;8.38;3.28;;;;;;;;;;4855647;29;20045;-74
2022/08/14 14:19:04;;;;;;;11.82;5.70;;;;;;;;;;4855872;29;20049;-72
2022/08/14 14:21:38;;;;;;;7.63;2.80;;;;;;;;;;4855856;29;20041;-75
2022/08/14 14:24:10;;;;;;;6.30;2.92;;;;;;;;;;4855769;29;20049;-74
2022/08/14 14:26:46;;;;;;;;;;;;;;;;;;4856050;29;20064;-75
2022/08/14 14:29:19;;;;;;;5.00;2.83;;;;;;;;;;4856444;29;19928;-74
2022/08/14 14:31:55;;;;;;;11.27;3.85;;;;;;;;;;4855889;29;20056;-73
2022/08/14 14:34:32;;;;;;;9.07;2.95;;;;;;;;;;4855303;29;20060;-74
2022/08/14 14:37:04;;;;;;;7.60;3.30;;;;;;;;;;4869258;29;20045;-71
2022/08/14 14:39:35;;;;;;;11.65;3.20;;;;;;;;;;4855323;29;20060;-72
2022/08/14 14:42:27;;;;;;;5.88;2.38;;;;;;;;;;4855316;29;20064;-72
2022/08/14 14:45:14;;;;;;;6.03;2.17;;;;;;;;;;4855178;29;20064;-77
2022/08/14 14:47:53;;;;;;;7.10;2.28;;;;;;;;;;4855742;29;20060;-76
2022/08/14 14:50:27;;;;;;;3.50;2.22;;;;;;;;;;4855544;29;20050;-76
2022/08/14 14:52:57;;;;;;;4.55;2.42;;;;;;;;;;4854765;29;20409;-75
2022/08/14 14:55:42;;;;;;;3.78;2.10;;;;;;;;;;4855800;29;20045;-74
2022/08/14 14:58:33;;;;;;;5.25;2.33;;;;;;;;;;4855296;29;20057;-73
2022/08/14 15:01:06;;;;;;;4.70;2.13;;;;;;;;;;4855189;29;20057;-74
2022/08/14 15:03:42;;;;;;;3.60;2.20;;;;;;;;;;4854849;29;20045;-74
2022/08/14 15:06:13;;;;;;;4.25;2.28;;;;;;;;;;4855270;29;20061;-75
2022/08/14 15:08:47;;;;;;;5.50;2.05;;;;;;;;;;4854958;29;20065;-77
2022/08/14 15:11:27;;;;;;;;;;;;;;;;;;4855392;29;20061;-72
2022/08/14 15:13:58;;;;;;;6.10;2.70;;;;;;;;;;4855311;29;19928;-73
2022/08/14 15:16:28;;;;;;;3.70;2.65;;;;;;;;;;4855352;29;20792;-74
2022/08/14 15:18:59;;;;;;;3.58;2.33;;;;;;;;;;4855623;29;20064;-76
2022/08/14 15:21:28;;;;;;;3.92;2.33;;;;;;;;;;4854096;29;20062;-76
2022/08/14 15:23:59;;;;;;;4.28;2.70;;;;;;;;;;4855036;29;20061;-75
2022/08/14 15:26:32;;;;;;;5.05;3.00;;;;;;;;;;4854900;29;20055;-76
2022/08/14 15:29:04;;;;;;;4.53;2.35;;;;;;;;;;4854905;29;20056;-74
2022/08/14 15:31:35;;;;;;;4.60;2.42;;;;;;;;;;4854924;29;20056;-79
2022/08/14 15:34:10;;;;;;;6.70;2.70;;;;;;;;;;4854406;29;20070;-74
2022/08/14 15:37:01;;;;;;;6.65;2.20;;;;;;;;;;4854275;29;20050;-74
2022/08/14 15:39:33;;;;;;;6.45;2.00;;;;;;;;;;4855362;29;20054;-74
2022/08/14 15:42:09;;;;;;;5.15;2.30;;;;;;;;;;4854458;29;20045;-73
2022/08/14 15:44:46;;;;;;;5.07;2.22;;;;;;;;;;4854257;29;20062;-73
2022/08/14 15:47:30;;;;;;;4.57;2.45;;;;;;;;;;4854041;29;20060;-73
2022/08/14 15:50:07;;;;;;;5.55;2.10;;;;;;;;;;4854445;29;20049;-74
2022/08/14 15:52:37;;;;;;;5.75;2.55;;;;;;;;;;4853023;29;20065;-73
2022/08/14 15:55:12;;;;;;;3.65;2.00;;;;;;;;;;4854494;29;20053;-74
2022/08/14 15:57:44;;;;;;;5.97;2.08;;;;;;;;;;4854773;29;20053;-75
2022/08/14 16:03:25;;;;;;;5.38;2.67;;;;;;;;;;4858531;29;20085;-75
2022/08/14 16:06:12;;;;;;;3.38;2.00;;;;;;;;;;4857812;29;20057;-73
2022/08/14 16:08:48;;;;;;;4.18;2.10;;;;;;;;;;4857925;29;20057;-73
2022/08/14 16:11:28;;;;;;;4.32;1.88;;;;;;;;;;4858007;29;20060;-72